Airfield :
LOGIN :

Register | Disclaimer

   EN    FR    IT 

 










Legend :    VFR   Marginal VFR   IFR   Intensive IFR   Very Intensive IFR
Visi :
Ceiling :
>= 8 km
>= 3000ft
5 to 8 km
1000 to 3000 ft
1500m to 5 km
500 to 1000 ft
800 to 1500m
200 to 500 ft
< 800m
< 200 ft
Symbols :   Thunderstorms  Fog  Heavy snow  Heavy precipitations  Wind > 20 kt
SIGMETs :     Misc.  Thunderstorms  Icing  Turbulence  Mountain Waves  Volcanic Ashes






- Airport Elevation : 46 ft
- IATA code : SNN


EINN - Shannon

CURRENT METAR :
  • 010530Z 32005KT 9999 FEW022 BKN040 05/03 Q1030 NOSIG

EXPIRED METARs :
  • 010500Z 31006KT 9999 FEW026 BKN040 05/03 Q1030 NOSIG
  • 010430Z 34006KT 9999 FEW030 BKN040 06/03 Q1030 NOSIG
  • 010400Z 35008KT 9999 FEW030 BKN042 06/03 Q1030 NOSIG
  • 010330Z 34007KT 9999 FEW032 SCT038 BKN043 06/03 Q1031 NOSIG
  • 010300Z 34007KT 9999 FEW034 BKN040 06/03 Q1031 NOSIG

TAF TAF EINN
Valid from the 01 at 06:00 until the 02 at 06:00 UTC


010500Z 0106/0206 32008KT 9999 FEW025 BKN040
BECMG 0122/0124 28007KT



MET'MAP, your aeronautical weather chart ! - Copyright ORBIFLY December 2007 - Disclaimer

ORBIFLY MET'MAP TEAM :

Programming & Development : Alexandra Zaïnal
Concept & original design : Baudouin d'Aumeries
Assistance for programming : Marc-Olivier Méhu
Technical & hardware support : Manuel Goepfert

Contact : metmap@orbifly.com




SOURCES & CREDITS :

   NOAA